createdAt,value
2022-10-28T00:03:10.723Z,9.75
2022-10-28T00:08:13.330Z,13.88
2022-10-28T00:13:15.149Z,11.00
2022-10-28T00:18:16.698Z,16.05
2022-10-28T00:23:18.313Z,10.82
2022-10-28T00:28:20.795Z,9.43
2022-10-28T00:33:22.426Z,9.43
2022-10-28T00:38:24.610Z,10.63
2022-10-28T00:43:39.485Z,9.30
2022-10-28T00:48:45.567Z,9.82
2022-10-28T00:53:48.430Z,11.00
2022-10-28T00:58:50.654Z,9.18
2022-10-28T01:03:54.373Z,9.43
2022-10-28T01:08:59.888Z,12.35
2022-10-28T01:14:25.043Z,9.70
2022-10-28T01:20:04.339Z,11.20
2022-10-28T01:25:47.638Z,9.10
2022-10-28T01:31:30.038Z,9.88
2022-10-28T01:36:47.375Z,14.77
2022-10-28T01:41:56.783Z,11.43
2022-10-28T01:47:10.818Z,8.93
2022-10-28T01:52:18.393Z,13.77
2022-10-28T01:57:23.922Z,11.43
2022-10-28T02:02:26.719Z,11.50
2022-10-28T02:07:28.353Z,11.13
2022-10-28T02:12:35.512Z,9.40
2022-10-28T02:18:11.885Z,11.05
2022-10-28T02:23:51.386Z,10.70
2022-10-28T02:29:05.942Z,10.27
2022-10-28T02:34:12.904Z,10.07
2022-10-28T02:39:17.306Z,10.10
2022-10-28T02:44:26.538Z,9.38
2022-10-28T02:49:31.083Z,13.32
2022-10-28T02:54:51.149Z,14.60
2022-10-28T03:00:06.551Z,11.38
2022-10-28T03:05:08.645Z,11.15
2022-10-28T03:10:10.458Z,13.00
2022-10-28T03:15:12.101Z,11.65
2022-10-28T03:20:13.810Z,14.05
2022-10-28T03:25:15.392Z,13.63
2022-10-28T03:30:18.536Z,11.13
2022-10-28T03:35:20.643Z,10.95
2022-10-28T03:40:22.263Z,11.05
2022-10-28T03:45:24.796Z,10.20
2022-10-28T03:50:26.925Z,9.50
2022-10-28T03:55:29.784Z,10.40
2022-10-28T04:00:32.261Z,11.15
2022-10-28T04:05:36.015Z,10.20
2022-10-28T04:10:37.857Z,9.25
2022-10-28T04:15:39.911Z,9.23
2022-10-28T04:20:41.521Z,8.38
2022-10-28T04:25:43.325Z,9.30
2022-10-28T04:30:48.003Z,8.73
2022-10-28T04:35:49.665Z,9.05
2022-10-28T04:40:51.363Z,8.85
2022-10-28T04:45:53.006Z,8.63
2022-10-28T04:50:57.383Z,8.40
2022-10-28T04:56:00.548Z,8.55
2022-10-28T05:01:09.445Z,8.75
2022-10-28T05:06:11.153Z,8.73
2022-10-28T05:11:13.626Z,8.80
2022-10-28T05:16:15.496Z,9.02
2022-10-28T05:21:17.091Z,8.25
2022-10-28T05:26:19.166Z,10.02
2022-10-28T05:31:20.982Z,14.55
2022-10-28T05:36:22.816Z,10.20
2022-10-28T05:41:25.449Z,9.90
2022-10-28T05:46:27.362Z,8.48
2022-10-28T05:51:29.177Z,8.13
2022-10-28T05:56:31.063Z,7.50
2022-10-28T06:01:32.718Z,7.18
2022-10-28T06:06:34.807Z,7.70
2022-10-28T06:11:35.072Z,8.10
2022-10-28T06:16:37.773Z,7.50
2022-10-28T06:21:40.050Z,8.95
2022-10-28T06:26:42.858Z,9.23
2022-10-28T06:31:44.716Z,9.38
2022-10-28T06:36:47.478Z,8.65
2022-10-28T06:41:49.132Z,8.05
2022-10-28T06:46:52.519Z,9.05
2022-10-28T06:51:54.441Z,8.30
2022-10-28T06:56:56.432Z,8.18
2022-10-28T07:01:59.407Z,8.23
2022-10-28T07:07:01.877Z,7.63
2022-10-28T07:12:05.065Z,7.22
2022-10-28T07:17:07.409Z,7.18
2022-10-28T07:22:09.009Z,7.05
2022-10-28T07:27:10.818Z,6.45
2022-10-28T07:32:12.896Z,6.85
2022-10-28T07:37:15.026Z,7.00
2022-10-28T07:42:16.843Z,8.13
2022-10-28T07:47:19.715Z,8.07
2022-10-28T07:52:21.535Z,7.57
2022-10-28T07:57:23.565Z,9.38
2022-10-28T08:02:26.115Z,6.95
2022-10-28T08:07:28.372Z,6.93
2022-10-28T08:12:30.788Z,6.93
2022-10-28T08:17:32.397Z,6.80
2022-10-28T08:22:34.062Z,6.30
2022-10-28T08:27:36.230Z,6.60
2022-10-28T08:32:38.020Z,6.15
2022-10-28T08:37:39.624Z,6.10
2022-10-28T08:42:52.167Z,6.68
2022-10-28T08:48:09.327Z,6.65
2022-10-28T08:53:19.824Z,6.03
2022-10-28T08:58:31.102Z,10.13
2022-10-28T09:03:39.237Z,6.93
2022-10-28T09:08:44.292Z,7.00
2022-10-28T09:14:13.988Z,6.63
2022-10-28T09:19:40.290Z,6.10
2022-10-28T09:25:02.776Z,6.65
2022-10-28T09:30:16.874Z,6.90
2022-10-28T09:35:23.634Z,6.20
2022-10-28T09:40:29.756Z,6.63
2022-10-28T09:45:36.264Z,6.57
2022-10-28T09:50:38.673Z,6.20
2022-10-28T09:55:40.451Z,5.75
2022-10-28T10:00:42.257Z,6.05
2022-10-28T10:05:50.603Z,5.43
2022-10-28T10:11:09.969Z,4.93
2022-10-28T10:16:18.186Z,4.13
2022-10-28T10:21:46.902Z,5.72
2022-10-28T10:26:48.704Z,6.55
2022-10-28T10:32:20.067Z,4.22
2022-10-28T10:37:22.827Z,3.53
2022-10-28T10:42:25.626Z,4.78
2022-10-28T10:47:27.619Z,4.22
2022-10-28T10:52:29.716Z,3.75
2022-10-28T10:57:32.840Z,2.80
2022-10-28T11:02:42.889Z,3.65
2022-10-28T11:07:48.708Z,3.35
2022-10-28T11:12:56.591Z,2.78
2022-10-28T11:18:17.200Z,5.82
2022-10-28T11:23:42.209Z,4.50
2022-10-28T11:29:14.019Z,3.38
2022-10-28T11:34:49.731Z,2.10
2022-10-28T11:40:03.626Z,2.95
2022-10-28T11:45:08.458Z,2.28
2022-10-28T11:55:44.266Z,3.85
2022-10-28T12:01:01.143Z,3.63
2022-10-28T12:06:12.450Z,2.20
2022-10-28T12:11:26.505Z,2.45
2022-10-28T12:16:51.978Z,1.70
2022-10-28T12:22:39.658Z,1.92
2022-10-28T12:27:45.161Z,2.95
2022-10-28T12:32:50.241Z,1.90
2022-10-28T12:37:59.216Z,1.80
2022-10-28T12:43:16.289Z,2.35
2022-10-28T12:48:42.638Z,2.08
2022-10-28T12:54:00.450Z,3.35
2022-10-28T12:59:14.873Z,1.58
2022-10-28T13:04:17.102Z,3.83
2022-10-28T13:09:48.332Z,3.00
2022-10-28T13:15:18.884Z,3.13
2022-10-28T13:20:26.316Z,2.17
2022-10-28T13:25:43.039Z,3.37
2022-10-28T13:30:57.238Z,2.20
2022-10-28T13:36:31.575Z,4.13
2022-10-28T13:41:44.690Z,3.70
2022-10-28T13:47:25.611Z,5.45
2022-10-28T13:52:27.225Z,4.20
2022-10-28T13:57:36.004Z,3.25
2022-10-28T14:03:04.802Z,2.42
2022-10-28T14:08:18.007Z,3.75
2022-10-28T14:13:22.544Z,4.25
2022-10-28T14:24:07.127Z,3.30
2022-10-28T14:29:27.524Z,3.05
2022-10-28T14:34:39.484Z,2.90
2022-10-28T14:39:50.366Z,4.97
2022-10-28T14:45:31.886Z,3.13
2022-10-28T14:50:42.541Z,2.47
2022-10-28T14:55:52.383Z,2.45
2022-10-28T15:01:04.360Z,2.83
2022-10-28T15:06:31.078Z,5.82
2022-10-28T15:11:34.037Z,3.35
2022-10-28T15:16:35.899Z,2.50
2022-10-28T15:21:37.793Z,3.25
2022-10-28T15:26:39.684Z,3.10
2022-10-28T15:32:04.810Z,3.70
2022-10-28T15:37:07.172Z,3.35
2022-10-28T15:42:47.372Z,3.05
2022-10-28T15:47:49.214Z,3.30
2022-10-28T15:52:54.300Z,4.90
2022-10-28T15:58:23.896Z,3.30
2022-10-28T16:03:27.148Z,5.50
2022-10-28T16:08:32.737Z,3.40
2022-10-28T16:13:38.301Z,5.22
2022-10-28T16:18:46.573Z,3.97
2022-10-28T16:23:52.520Z,4.43
2022-10-28T16:28:54.920Z,7.40
2022-10-28T16:33:58.479Z,7.18
2022-10-28T16:39:00.834Z,4.30
2022-10-28T16:44:02.574Z,10.35
2022-10-28T16:49:04.181Z,4.40
2022-10-28T16:54:05.841Z,4.45
2022-10-28T16:59:07.697Z,3.40
2022-10-28T17:04:10.513Z,3.92
2022-10-28T17:09:12.191Z,5.72
2022-10-28T17:14:15.317Z,4.13
2022-10-28T17:19:17.160Z,4.93
2022-10-28T17:24:20.595Z,8.13
2022-10-28T17:29:22.433Z,7.10
2022-10-28T17:34:24.026Z,9.18
2022-10-28T17:39:26.616Z,8.38
2022-10-28T17:44:29.613Z,7.57
2022-10-28T17:49:34.776Z,4.60
2022-10-28T17:54:38.305Z,5.30
2022-10-28T17:59:40.775Z,5.63
2022-10-28T18:04:45.467Z,6.88
2022-10-28T18:09:47.298Z,10.35
2022-10-28T18:14:51.209Z,6.78
2022-10-28T18:19:53.035Z,10.15
2022-10-28T18:24:57.328Z,5.45
2022-10-28T18:30:01.130Z,5.80
2022-10-28T18:35:03.893Z,6.75
2022-10-28T18:40:10.650Z,8.15
2022-10-28T18:45:13.638Z,7.03
2022-10-28T18:50:17.163Z,7.30
2022-10-28T18:55:21.832Z,7.72
2022-10-28T19:00:23.613Z,7.63
2022-10-28T19:05:26.302Z,6.85
2022-10-28T19:10:29.173Z,6.70
2022-10-28T19:15:32.378Z,11.63
2022-10-28T19:20:35.899Z,6.88
2022-10-28T19:25:39.415Z,7.78
2022-10-28T19:30:41.231Z,7.68
2022-10-28T19:35:42.966Z,6.13
2022-10-28T19:40:44.685Z,6.57
2022-10-28T19:45:46.881Z,6.10
2022-10-28T19:50:49.807Z,8.43
2022-10-28T19:55:59.014Z,6.85
2022-10-28T20:01:04.611Z,7.78
2022-10-28T20:06:10.169Z,5.93
2022-10-28T20:11:21.444Z,5.75
2022-10-28T20:16:30.573Z,8.65
2022-10-28T20:21:35.441Z,7.85
2022-10-28T20:26:40.515Z,7.00
2022-10-28T20:31:43.404Z,7.20
2022-10-28T20:36:45.606Z,8.93
2022-10-28T20:41:49.303Z,9.30
2022-10-28T20:46:52.549Z,8.60
2022-10-28T20:51:55.801Z,9.70
2022-10-28T20:56:58.161Z,6.40
2022-10-28T21:02:01.176Z,7.32
2022-10-28T21:07:08.689Z,8.55
2022-10-28T21:12:10.378Z,10.60
2022-10-28T21:17:12.378Z,9.13
2022-10-28T21:22:15.679Z,8.60
2022-10-28T21:27:18.346Z,13.00
2022-10-28T21:32:20.034Z,8.15
2022-10-28T21:37:22.978Z,9.15
2022-10-28T21:42:27.046Z,10.55
2022-10-28T21:47:29.042Z,9.30
2022-10-28T21:52:31.146Z,11.65
2022-10-28T21:57:34.031Z,12.25
2022-10-28T22:02:36.246Z,12.13
2022-10-28T22:07:39.300Z,7.43
2022-10-28T22:12:42.265Z,13.63
2022-10-28T22:17:45.832Z,9.50
2022-10-28T22:22:47.716Z,12.95
2022-10-28T22:27:50.894Z,13.63
2022-10-28T22:32:56.754Z,16.83
2022-10-28T22:38:00.057Z,15.82
2022-10-28T22:43:01.774Z,8.07
2022-10-28T22:48:03.945Z,10.32
2022-10-28T22:53:06.047Z,9.38
2022-10-28T22:58:07.785Z,10.63
2022-10-28T23:03:11.590Z,9.48
2022-10-28T23:08:16.491Z,8.23
2022-10-28T23:13:21.894Z,9.63
2022-10-28T23:18:31.655Z,10.80
2022-10-28T23:23:37.294Z,10.88
2022-10-28T23:28:41.222Z,8.45
2022-10-28T23:33:46.610Z,11.48
2022-10-28T23:38:49.630Z,9.10
2022-10-28T23:43:51.509Z,13.00
2022-10-28T23:48:53.436Z,12.65
2022-10-28T23:53:55.109Z,10.75
2022-10-28T23:58:59.101Z,7.93
